createdAt,value
2022-09-05T00:00:02.045Z,17.86
2022-09-05T00:01:02.038Z,17.87
2022-09-05T00:02:02.032Z,17.87
2022-09-05T00:03:02.159Z,17.90
2022-09-05T00:04:03.515Z,17.76
2022-09-05T00:05:02.035Z,17.86
2022-09-05T00:06:03.452Z,17.78
2022-09-05T00:07:02.041Z,17.83
2022-09-05T00:08:02.037Z,17.86
2022-09-05T00:09:02.044Z,17.83
2022-09-05T00:10:02.031Z,17.87
2022-09-05T00:11:39.749Z,17.85
2022-09-05T00:12:02.062Z,17.86
2022-09-05T00:13:07.711Z,17.78
2022-09-05T00:14:02.034Z,17.74
2022-09-05T00:15:17.392Z,17.72
2022-09-05T00:16:02.138Z,17.80
2022-09-05T00:17:02.034Z,17.76
2022-09-05T00:19:34.097Z,17.80
2022-09-05T00:24:19.237Z,17.72
2022-09-05T00:24:27.138Z,17.59
2022-09-05T00:24:27.139Z,17.59
2022-09-05T00:24:29.712Z,17.67
2022-09-05T00:24:32.401Z,17.68
2022-09-05T00:24:37.781Z,17.72
2022-09-05T00:25:32.593Z,17.63
2022-09-05T00:26:02.041Z,17.63
2022-09-05T00:27:02.047Z,17.67
2022-09-05T00:28:08.827Z,17.57
2022-09-05T00:29:02.046Z,17.59
2022-09-05T00:31:07.420Z,17.57
2022-09-05T00:31:50.793Z,17.57
2022-09-05T00:32:02.074Z,17.59
2022-09-05T00:33:02.036Z,17.56
2022-09-05T00:34:02.030Z,17.52
2022-09-05T00:35:02.040Z,17.48
2022-09-05T00:36:02.038Z,17.64
2022-09-05T00:37:02.031Z,17.52
2022-09-05T00:38:02.038Z,17.44
2022-09-05T00:39:02.060Z,17.49
2022-09-05T00:40:17.280Z,17.46
2022-09-05T00:41:02.061Z,17.51
2022-09-05T00:42:02.045Z,17.44
2022-09-05T00:43:02.040Z,17.45
2022-09-05T00:44:02.039Z,17.46
2022-09-05T00:45:02.024Z,17.42
2022-09-05T00:46:02.076Z,17.44
2022-09-05T00:47:02.035Z,17.45
2022-09-05T00:48:02.034Z,17.41
2022-09-05T00:49:02.033Z,17.39
2022-09-05T00:50:02.045Z,17.38
2022-09-05T00:51:02.023Z,17.33
2022-09-05T00:52:02.053Z,17.34
2022-09-05T00:53:06.855Z,17.31
2022-09-05T00:54:02.021Z,17.34
2022-09-05T00:55:02.032Z,17.39
2022-09-05T00:56:02.021Z,17.30
2022-09-05T00:57:02.017Z,17.26
2022-09-05T00:58:02.036Z,17.31
2022-09-05T00:59:02.019Z,17.29
2022-09-05T01:00:02.025Z,17.34
2022-09-05T01:01:02.024Z,17.30
2022-09-05T01:02:02.144Z,17.20
2022-09-05T01:03:02.139Z,17.22
2022-09-05T01:04:02.022Z,17.22
2022-09-05T01:05:02.031Z,17.22
2022-09-05T01:06:02.019Z,17.24
2022-09-05T01:07:02.025Z,17.22
2022-09-05T01:08:02.018Z,17.23
2022-09-05T01:09:07.925Z,17.23
2022-09-05T01:10:02.023Z,17.14
2022-09-05T01:11:02.011Z,17.12
2022-09-05T01:12:02.017Z,17.06
2022-09-05T01:13:02.018Z,17.11
2022-09-05T01:14:02.019Z,17.15
2022-09-05T01:15:02.046Z,17.14
2022-09-05T01:16:02.104Z,17.12
2022-09-05T01:17:02.010Z,17.14
2022-09-05T01:18:02.017Z,17.14
2022-09-05T01:19:02.032Z,17.06
2022-09-05T01:20:19.768Z,17.09
2022-09-05T01:21:02.018Z,17.08
2022-09-05T01:22:02.011Z,17.16
2022-09-05T01:23:03.687Z,17.14
2022-09-05T01:24:02.013Z,17.02
2022-09-05T01:25:02.014Z,17.06
2022-09-05T01:26:02.020Z,17.02
2022-09-05T01:27:02.009Z,17.11
2022-09-05T01:29:13.763Z,17.05
2022-09-05T01:29:17.128Z,17.05
2022-09-05T01:30:02.006Z,17.12
2022-09-05T01:31:02.071Z,17.05
2022-09-05T01:32:02.004Z,17.08
2022-09-05T01:33:06.327Z,17.11
2022-09-05T01:34:02.003Z,17.02
2022-09-05T01:35:02.023Z,17.05
2022-09-05T01:36:04.243Z,17.05
2022-09-05T01:37:02.020Z,17.09
2022-09-05T01:38:02.017Z,17.01
2022-09-05T01:40:10.671Z,16.93
2022-09-05T01:40:11.660Z,17.01
2022-09-05T01:41:18.081Z,16.96
2022-09-05T01:42:01.992Z,16.89
2022-09-05T01:43:02.005Z,16.90
2022-09-05T01:44:01.996Z,16.93
2022-09-05T01:45:02.018Z,16.87
2022-09-05T01:46:02.037Z,16.90
2022-09-05T01:47:01.998Z,16.81
2022-09-05T01:48:02.008Z,16.93
2022-09-05T01:49:01.997Z,16.86
2022-09-05T01:50:02.002Z,16.83
2022-09-05T01:51:02.003Z,16.83
2022-09-05T01:52:02.010Z,16.83
2022-09-05T01:53:03.197Z,16.81
2022-09-05T01:54:01.993Z,16.81
2022-09-05T01:55:02.022Z,16.83
2022-09-05T01:56:02.038Z,16.81
2022-09-05T01:57:01.988Z,16.78
2022-09-05T01:58:01.987Z,16.75
2022-09-05T01:59:01.989Z,16.74
2022-09-05T02:00:02.007Z,16.69
2022-09-05T02:01:26.999Z,16.69
2022-09-05T02:02:02.032Z,16.69
2022-09-05T02:03:02.045Z,16.74
2022-09-05T02:04:06.488Z,16.68
2022-09-05T02:05:01.986Z,16.75
2022-09-05T02:06:01.985Z,16.69
2022-09-05T02:07:19.829Z,16.68
2022-09-05T02:08:01.985Z,16.76
2022-09-05T02:09:01.986Z,16.71
2022-09-05T02:10:07.042Z,16.66
2022-09-05T02:11:01.973Z,16.68
2022-09-05T02:12:01.970Z,16.71
2022-09-05T02:13:03.088Z,16.75
2022-09-05T02:14:01.986Z,16.71
2022-09-05T02:15:01.996Z,16.65
2022-09-05T02:16:02.070Z,16.65
2022-09-05T02:17:01.985Z,16.72
2022-09-05T02:18:01.968Z,16.66
2022-09-05T02:19:01.982Z,16.71
2022-09-05T02:20:01.976Z,16.68
2022-09-05T02:21:01.968Z,16.71
2022-09-05T02:22:01.968Z,16.69
2022-09-05T02:23:02.004Z,16.69
2022-09-05T02:24:01.981Z,16.66
2022-09-05T02:26:00.502Z,16.71
2022-09-05T02:26:03.539Z,16.71
2022-09-05T02:27:01.967Z,16.74
2022-09-05T02:28:05.139Z,16.71
2022-09-05T02:29:01.960Z,16.69
2022-09-05T02:30:01.983Z,16.72
2022-09-05T02:31:19.101Z,16.75
2022-09-05T02:32:01.970Z,16.74
2022-09-05T02:33:01.997Z,16.66
2022-09-05T02:34:02.651Z,16.68
2022-09-05T02:35:01.959Z,16.64
2022-09-05T02:36:01.957Z,16.64
2022-09-05T02:37:01.958Z,16.61
2022-09-05T02:38:51.048Z,16.58
2022-09-05T02:45:01.969Z,16.61
2022-09-05T02:45:03.579Z,16.61
2022-09-05T02:45:10.692Z,16.56
2022-09-05T02:45:14.078Z,16.56
2022-09-05T02:45:14.354Z,16.64
2022-09-05T02:45:21.362Z,16.61
2022-09-05T02:45:24.531Z,16.54
2022-09-05T02:46:02.150Z,16.54
2022-09-05T02:47:02.018Z,16.51
2022-09-05T02:48:15.685Z,16.54
2022-09-05T02:49:01.942Z,16.58
2022-09-05T02:55:19.897Z,16.56
2022-09-05T02:57:25.942Z,16.56
2022-09-05T02:57:28.443Z,16.58
2022-09-05T02:57:28.840Z,16.57
2022-09-05T02:57:36.696Z,16.58
2022-09-05T02:57:39.224Z,16.60
2022-09-05T02:57:40.979Z,16.50
2022-09-05T02:57:42.881Z,16.60
2022-09-05T02:58:07.314Z,16.50
2022-09-05T02:59:10.578Z,16.33
2022-09-05T03:00:01.929Z,16.41
2022-09-05T03:01:01.968Z,16.43
2022-09-05T03:02:02.083Z,16.41
2022-09-05T03:03:01.960Z,16.46
2022-09-05T03:04:01.930Z,16.47
2022-09-05T03:05:04.794Z,16.41
2022-09-05T03:06:01.929Z,16.46
2022-09-05T03:07:01.926Z,16.50
2022-09-05T03:08:01.941Z,16.46
2022-09-05T03:09:09.836Z,16.46
2022-09-05T03:10:01.937Z,16.46
2022-09-05T03:11:01.922Z,16.47
2022-09-05T03:12:27.167Z,16.36
2022-09-05T03:13:01.944Z,16.39
2022-09-05T03:14:01.924Z,16.35
2022-09-05T03:15:01.928Z,16.33
2022-09-05T03:16:04.732Z,16.33
2022-09-05T03:17:01.969Z,16.41
2022-09-05T03:18:21.074Z,16.29
2022-09-05T03:19:01.913Z,16.29
2022-09-05T03:20:01.929Z,16.31
2022-09-05T03:21:09.680Z,16.38
2022-09-05T03:22:01.923Z,16.31
2022-09-05T03:23:01.914Z,16.36
2022-09-05T03:24:09.076Z,16.32
2022-09-05T03:26:05.923Z,16.33
2022-09-05T03:27:05.901Z,16.36
2022-09-05T03:29:09.887Z,16.36
2022-09-05T03:30:09.871Z,16.39
2022-09-05T03:31:20.286Z,16.41
2022-09-05T03:32:09.875Z,16.33
2022-09-05T03:33:09.867Z,16.32
2022-09-05T03:34:09.870Z,16.32
2022-09-05T03:35:09.879Z,16.31
2022-09-05T03:36:09.875Z,16.32
2022-09-05T03:37:09.875Z,16.36
2022-09-05T03:38:09.882Z,16.39
2022-09-05T03:39:09.860Z,16.29
2022-09-05T03:40:15.683Z,16.33
2022-09-05T03:41:09.857Z,16.31
2022-09-05T03:42:14.798Z,16.33
2022-09-05T03:43:09.856Z,16.35
2022-09-05T03:44:09.861Z,16.29
2022-09-05T03:45:09.852Z,16.28
2022-09-05T03:46:09.896Z,16.33
2022-09-05T03:47:09.857Z,16.32
2022-09-05T03:48:28.872Z,16.35
2022-09-05T03:50:20.808Z,16.33
2022-09-05T03:56:56.919Z,16.35
2022-09-05T03:57:08.334Z,16.41
2022-09-05T03:57:15.449Z,16.31
2022-09-05T03:57:16.929Z,16.31
2022-09-05T03:57:17.819Z,16.32
2022-09-05T03:57:26.577Z,16.33
2022-09-05T03:57:27.283Z,16.38
2022-09-05T03:57:32.241Z,16.36
2022-09-05T03:58:16.311Z,16.28
2022-09-05T03:59:09.838Z,16.31
2022-09-05T04:00:09.845Z,16.28
2022-09-05T04:01:10.851Z,16.31
2022-09-05T04:04:00.297Z,16.28
2022-09-05T04:08:08.493Z,16.31
2022-09-05T04:08:13.584Z,16.29
2022-09-05T04:08:18.788Z,16.29
2022-09-05T04:08:20.798Z,16.26
2022-09-05T04:08:26.020Z,16.24
2022-09-05T04:08:34.434Z,16.21
2022-09-05T04:09:09.945Z,16.26
2022-09-05T04:10:09.914Z,16.12
2022-09-05T04:11:09.892Z,16.09
2022-09-05T04:12:09.824Z,16.12
2022-09-05T04:13:09.820Z,16.12
2022-09-05T04:14:09.831Z,16.13
2022-09-05T04:15:09.818Z,16.15
2022-09-05T04:16:09.914Z,16.10
2022-09-05T04:17:09.853Z,16.10
2022-09-05T04:18:09.832Z,16.08
2022-09-05T04:19:09.852Z,16.05
2022-09-05T04:20:09.812Z,16.09
2022-09-05T04:21:09.823Z,15.95
2022-09-05T04:22:09.820Z,16.00
2022-09-05T04:23:09.822Z,16.00
2022-09-05T04:24:09.823Z,16.08
2022-09-05T04:25:09.822Z,16.09
2022-09-05T04:26:12.050Z,15.97
2022-09-05T04:27:09.838Z,16.02
2022-09-05T04:28:09.808Z,16.01
2022-09-05T04:29:09.810Z,16.00
2022-09-05T04:30:27.627Z,16.02
2022-09-05T04:31:09.810Z,15.97
2022-09-05T04:32:19.225Z,15.91
2022-09-05T04:33:09.800Z,16.00
2022-09-05T04:34:09.801Z,16.05
2022-09-05T04:35:09.804Z,15.98
2022-09-05T04:36:10.428Z,16.00
2022-09-05T04:37:09.797Z,16.04
2022-09-05T04:38:09.820Z,16.08
2022-09-05T04:39:09.798Z,16.12
2022-09-05T04:40:09.903Z,16.13
2022-09-05T04:41:09.798Z,16.09
2022-09-05T04:42:09.796Z,16.17
2022-09-05T04:43:09.794Z,16.15
2022-09-05T04:44:09.798Z,16.17
2022-09-05T04:45:09.786Z,16.12
2022-09-05T04:46:09.842Z,16.01
2022-09-05T04:47:09.792Z,16.05
2022-09-05T04:48:09.786Z,16.04
2022-09-05T04:49:09.788Z,15.98
2022-09-05T04:50:09.782Z,15.97
2022-09-05T04:51:11.616Z,16.00
2022-09-05T04:52:09.771Z,16.02
2022-09-05T04:53:09.778Z,15.95
2022-09-05T04:54:09.776Z,16.00
2022-09-05T04:55:09.789Z,15.98
2022-09-05T04:56:09.786Z,15.98
2022-09-05T04:57:13.778Z,16.01
2022-09-05T04:58:09.836Z,15.91
2022-09-05T05:00:54.274Z,16.00
2022-09-05T05:06:02.263Z,15.98
2022-09-05T05:06:04.864Z,16.00
2022-09-05T05:06:05.029Z,15.95
2022-09-05T05:06:09.241Z,16.01
2022-09-05T05:06:09.581Z,15.98
2022-09-05T05:06:10.663Z,15.98
2022-09-05T05:06:38.129Z,15.98
2022-09-05T05:07:09.902Z,16.00
2022-09-05T05:08:09.913Z,15.94
2022-09-05T05:09:09.760Z,16.05
2022-09-05T05:12:06.861Z,15.95
2022-09-05T05:14:28.969Z,15.98
2022-09-05T05:17:53.919Z,15.98
2022-09-05T05:17:56.821Z,15.97
2022-09-05T05:18:01.024Z,15.98
2022-09-05T05:18:13.399Z,16.00
2022-09-05T05:18:13.560Z,15.94
2022-09-05T05:18:16.247Z,15.97
2022-09-05T05:18:39.701Z,16.01
2022-09-05T05:19:15.691Z,16.01
2022-09-05T05:20:41.159Z,15.94
2022-09-05T05:21:09.782Z,16.05
2022-09-05T05:22:09.748Z,15.98
2022-09-05T05:23:09.742Z,16.00
2022-09-05T05:24:09.751Z,16.02
2022-09-05T05:25:09.742Z,15.98
2022-09-05T05:26:09.745Z,16.05
2022-09-05T05:27:09.738Z,16.10
2022-09-05T05:28:22.588Z,16.02
2022-09-05T05:29:09.738Z,16.08
2022-09-05T05:30:09.742Z,16.13
2022-09-05T05:31:09.801Z,16.10
2022-09-05T05:32:09.731Z,16.26
2022-09-05T05:33:09.729Z,16.21
2022-09-05T05:34:16.186Z,16.20
2022-09-05T05:35:09.751Z,16.17
2022-09-05T05:36:09.731Z,16.29
2022-09-05T05:37:09.729Z,16.26
2022-09-05T05:38:09.741Z,16.31
2022-09-05T05:39:09.741Z,16.24
2022-09-05T05:40:09.845Z,16.24
2022-09-05T05:41:09.724Z,16.29
2022-09-05T05:42:20.531Z,16.32
2022-09-05T05:43:09.721Z,16.28
2022-09-05T05:44:09.725Z,16.29
2022-09-05T05:45:09.727Z,16.31
2022-09-05T05:46:09.746Z,16.28
2022-09-05T05:47:09.720Z,16.32
2022-09-05T05:48:09.758Z,16.33
2022-09-05T05:49:09.752Z,16.33
2022-09-05T05:50:11.498Z,16.35
2022-09-05T05:51:09.733Z,16.35
2022-09-05T05:52:09.720Z,16.32
2022-09-05T05:53:09.710Z,16.36
2022-09-05T05:54:09.713Z,16.33
2022-09-05T05:55:50.496Z,16.38
2022-09-05T05:56:09.716Z,16.31
2022-09-05T05:57:14.767Z,16.31
2022-09-05T05:58:09.715Z,16.26
2022-09-05T05:59:09.727Z,16.31
2022-09-05T06:00:14.807Z,16.33
2022-09-05T06:01:13.131Z,16.26
2022-09-05T06:02:09.816Z,16.28
2022-09-05T06:03:25.787Z,16.33
2022-09-05T06:04:09.712Z,16.38
2022-09-05T06:05:09.713Z,16.38
2022-09-05T06:06:09.790Z,16.33
2022-09-05T06:07:10.055Z,16.33
2022-09-05T06:10:22.678Z,16.36
2022-09-05T06:13:04.942Z,16.38
2022-09-05T06:14:49.920Z,16.46
2022-09-05T06:14:51.045Z,16.38
2022-09-05T06:14:55.254Z,16.47
2022-09-05T06:14:57.753Z,16.53
2022-09-05T06:14:59.463Z,16.47
2022-09-05T06:15:12.013Z,16.54
2022-09-05T06:16:09.740Z,16.57
2022-09-05T06:17:09.714Z,16.50
2022-09-05T06:18:09.712Z,16.60
2022-09-05T06:19:09.721Z,16.56
2022-09-05T06:22:04.441Z,16.56
2022-09-05T06:22:11.512Z,16.61
2022-09-05T06:22:14.757Z,16.60
2022-09-05T06:23:33.485Z,16.58
2022-09-05T06:24:09.704Z,16.65
2022-09-05T06:25:16.984Z,16.71
2022-09-05T06:26:09.698Z,16.66
2022-09-05T06:27:09.689Z,16.61
2022-09-05T06:28:19.116Z,16.83
2022-09-05T06:29:09.691Z,16.96
2022-09-05T06:30:09.695Z,17.05
2022-09-05T06:31:29.090Z,17.16
2022-09-05T06:32:09.747Z,17.33
2022-09-05T06:33:09.713Z,17.51
2022-09-05T06:34:26.613Z,17.78
2022-09-05T06:35:09.721Z,17.85
2022-09-05T06:36:09.703Z,17.98
2022-09-05T06:37:09.713Z,18.15
2022-09-05T06:38:09.725Z,18.25
2022-09-05T06:39:09.718Z,18.31
2022-09-05T06:40:09.836Z,18.41
2022-09-05T06:41:09.734Z,18.56
2022-09-05T06:42:09.739Z,18.43
2022-09-05T06:43:09.743Z,18.53
2022-09-05T06:44:09.762Z,18.59
2022-09-05T06:45:27.954Z,18.62
2022-09-05T06:46:09.878Z,18.60
2022-09-05T06:47:23.828Z,18.59
2022-09-05T06:48:09.803Z,18.60
2022-09-05T06:49:30.161Z,18.59
2022-09-05T06:50:26.745Z,18.59
2022-09-05T06:51:09.808Z,18.66
2022-09-05T06:52:27.750Z,18.58
2022-09-05T06:53:30.335Z,18.58
2022-09-05T06:54:09.863Z,18.60
2022-09-05T06:55:09.852Z,18.60
2022-09-05T06:56:09.865Z,18.59
2022-09-05T06:57:09.876Z,18.58
2022-09-05T06:58:09.891Z,18.55
2022-09-05T06:59:10.128Z,18.63
2022-09-05T07:00:12.528Z,18.66
2022-09-05T07:01:09.990Z,18.65
2022-09-05T07:02:10.017Z,18.74
2022-09-05T07:03:09.997Z,18.71
2022-09-05T07:05:23.982Z,18.75
2022-09-05T07:05:37.514Z,18.83
2022-09-05T07:06:19.753Z,18.80
2022-09-05T07:07:09.952Z,18.81
2022-09-05T07:08:35.094Z,18.84
2022-09-05T07:09:09.968Z,18.86
2022-09-05T07:10:35.057Z,18.90
2022-09-05T07:11:15.641Z,18.90
2022-09-05T07:12:09.994Z,19.00
2022-09-05T07:13:09.996Z,19.04
2022-09-05T07:14:10.006Z,19.18
2022-09-05T07:15:10.021Z,19.21
2022-09-05T07:16:10.124Z,19.34
2022-09-05T07:17:10.028Z,19.36
2022-09-05T07:18:11.510Z,19.41
2022-09-05T07:19:10.040Z,19.47
2022-09-05T07:20:10.052Z,19.56
2022-09-05T07:21:16.540Z,19.66
2022-09-05T07:22:45.882Z,19.69
2022-09-05T07:23:18.084Z,19.84
2022-09-05T07:24:11.368Z,20.03
2022-09-05T07:25:10.123Z,19.95
2022-09-05T07:26:10.088Z,20.06
2022-09-05T07:27:10.107Z,20.16
2022-09-05T07:28:26.697Z,20.28
2022-09-05T07:29:10.118Z,20.29
2022-09-05T07:30:10.129Z,20.39
2022-09-05T07:31:10.151Z,20.39
2022-09-05T07:32:10.172Z,20.40
2022-09-05T07:33:10.162Z,20.43
2022-09-05T07:34:21.194Z,20.31
2022-09-05T07:35:10.200Z,20.34
2022-09-05T07:36:10.202Z,20.29
2022-09-05T07:37:15.346Z,20.39
2022-09-05T07:38:10.203Z,20.29
2022-09-05T07:39:27.839Z,20.34
2022-09-05T07:40:25.400Z,20.29
2022-09-05T07:41:10.226Z,20.29
2022-09-05T07:42:10.248Z,20.32
2022-09-05T07:43:10.631Z,20.32
2022-09-05T07:44:10.283Z,20.41
2022-09-05T07:45:10.269Z,20.50
2022-09-05T07:46:10.289Z,20.40
2022-09-05T07:47:10.274Z,20.58
2022-09-05T07:48:10.285Z,20.63
2022-09-05T07:49:10.285Z,20.65
2022-09-05T07:52:51.175Z,20.70
2022-09-05T07:56:50.340Z,20.85
2022-09-05T07:56:50.341Z,20.87
2022-09-05T07:56:54.033Z,20.80
2022-09-05T07:56:56.232Z,20.75
2022-09-05T07:57:09.217Z,20.87
2022-09-05T07:57:10.365Z,20.74
2022-09-05T07:57:31.269Z,20.97
2022-09-05T07:58:10.364Z,20.97
2022-09-05T07:59:10.393Z,20.97
2022-09-05T08:00:26.586Z,21.03
2022-09-05T08:01:10.434Z,21.12
2022-09-05T08:02:10.399Z,21.07
2022-09-05T08:03:10.425Z,21.17
2022-09-05T08:04:10.412Z,21.37
2022-09-05T08:05:10.466Z,21.36
2022-09-05T08:06:10.432Z,21.48
2022-09-05T08:07:48.742Z,21.50
2022-09-05T08:08:10.444Z,21.51
2022-09-05T08:10:05.291Z,21.48
2022-09-05T08:10:10.846Z,21.50
2022-09-05T08:11:24.066Z,21.48
2022-09-05T08:12:10.482Z,21.43
2022-09-05T08:13:23.992Z,21.51
2022-09-05T08:14:44.517Z,21.50
2022-09-05T08:15:14.162Z,21.43
2022-09-05T08:16:13.925Z,21.50
2022-09-05T08:17:10.538Z,21.48
2022-09-05T08:18:10.556Z,21.54
2022-09-05T08:19:10.543Z,21.60
2022-09-05T08:20:10.571Z,21.66
2022-09-05T08:21:10.602Z,21.64
2022-09-05T08:22:10.595Z,21.50
2022-09-05T08:23:10.583Z,21.62
2022-09-05T08:24:13.265Z,21.55
2022-09-05T08:25:10.614Z,21.48
2022-09-05T08:26:10.614Z,21.55
2022-09-05T08:27:16.686Z,21.70
2022-09-05T08:28:10.627Z,21.60
2022-09-05T08:29:10.633Z,21.69
2022-09-05T08:30:26.416Z,21.61
2022-09-05T08:31:10.677Z,21.80
2022-09-05T08:32:10.673Z,21.83
2022-09-05T08:33:11.923Z,21.91
2022-09-05T08:34:10.688Z,22.00
2022-09-05T08:35:10.694Z,22.04
2022-09-05T08:36:10.698Z,22.11
2022-09-05T08:37:10.711Z,22.20
2022-09-05T08:38:10.713Z,22.28
2022-09-05T08:39:10.717Z,22.17
2022-09-05T08:40:12.143Z,22.36
2022-09-05T08:41:10.738Z,22.39
2022-09-05T08:42:10.749Z,22.41
2022-09-05T08:46:10.223Z,22.57
2022-09-05T08:46:42.802Z,22.47
2022-09-05T08:46:43.474Z,22.48
2022-09-05T08:46:43.899Z,22.53
2022-09-05T08:47:10.794Z,22.60
2022-09-05T08:48:10.770Z,22.63
2022-09-05T08:50:08.042Z,22.69
2022-09-05T08:50:10.781Z,22.62
2022-09-05T08:51:10.791Z,22.65
2022-09-05T08:52:10.794Z,22.63
2022-09-05T08:53:26.924Z,22.54
2022-09-05T08:54:10.810Z,22.51
2022-09-05T08:55:10.819Z,22.36
2022-09-05T08:56:10.820Z,22.39
2022-09-05T08:57:10.838Z,22.33
2022-09-05T08:58:10.842Z,22.26
2022-09-05T08:59:28.500Z,22.11
2022-09-05T09:00:20.722Z,22.18
2022-09-05T09:01:10.883Z,22.25
2022-09-05T09:02:45.503Z,22.29
2022-09-05T09:03:10.920Z,22.33
2022-09-05T09:04:11.434Z,22.36
2022-09-05T09:05:14.162Z,22.50
2022-09-05T09:06:14.355Z,22.55
2022-09-05T09:07:36.812Z,22.54
2022-09-05T09:08:10.874Z,22.54
2022-09-05T09:09:10.887Z,22.62
2022-09-05T09:10:10.897Z,22.60
2022-09-05T09:11:10.896Z,22.66
2022-09-05T09:12:10.949Z,22.59
2022-09-05T09:13:10.907Z,22.62
2022-09-05T09:14:10.899Z,22.53
2022-09-05T09:15:10.894Z,22.51
2022-09-05T09:16:11.071Z,22.50
2022-09-05T09:17:10.916Z,22.50
2022-09-05T09:18:10.917Z,22.41
2022-09-05T09:19:10.930Z,22.51
2022-09-05T09:20:10.922Z,22.53
2022-09-05T09:21:10.927Z,22.57
2022-09-05T09:22:10.936Z,22.68
2022-09-05T09:23:31.774Z,22.68
2022-09-05T09:24:10.950Z,22.81
2022-09-05T09:25:15.194Z,22.76
2022-09-05T09:26:10.971Z,22.91
2022-09-05T09:27:10.952Z,22.91
2022-09-05T09:28:45.287Z,22.99
2022-09-05T09:29:10.965Z,22.94
2022-09-05T09:30:10.980Z,23.09
2022-09-05T09:31:11.059Z,22.99
2022-09-05T09:32:11.059Z,23.02
2022-09-05T09:33:10.976Z,22.96
2022-09-05T09:34:10.982Z,23.02
2022-09-05T09:35:10.977Z,23.03
2022-09-05T09:36:10.999Z,22.94
2022-09-05T09:37:11.010Z,22.99
2022-09-05T09:38:10.995Z,22.93
2022-09-05T09:39:37.157Z,22.96
2022-09-05T09:40:11.078Z,22.91
2022-09-05T09:41:11.008Z,22.91
2022-09-05T09:42:12.246Z,22.96
2022-09-05T09:43:11.077Z,22.99
2022-09-05T09:44:11.045Z,22.98
2022-09-05T09:45:27.471Z,22.94
2022-09-05T09:46:11.078Z,23.08
2022-09-05T09:47:11.031Z,22.98
2022-09-05T09:48:11.076Z,22.99
2022-09-05T09:49:23.299Z,23.02
2022-09-05T09:50:11.048Z,23.02
2022-09-05T09:51:11.047Z,23.02
2022-09-05T09:52:20.910Z,23.06
2022-09-05T09:53:11.054Z,23.02
2022-09-05T09:54:11.072Z,23.02
2022-09-05T09:55:17.377Z,22.99
2022-09-05T09:56:11.063Z,23.06
2022-09-05T09:57:11.079Z,23.08
2022-09-05T09:58:11.085Z,23.08
2022-09-05T09:59:11.085Z,23.00
2022-09-05T10:00:11.093Z,23.06
2022-09-05T10:01:35.555Z,23.03
2022-09-05T10:03:26.962Z,23.08
2022-09-05T10:06:39.457Z,23.05
2022-09-05T10:08:32.199Z,22.99
2022-09-05T10:10:40.053Z,23.03
2022-09-05T10:10:46.917Z,22.98
2022-09-05T10:10:47.751Z,23.09
2022-09-05T10:10:53.337Z,23.06
2022-09-05T10:10:55.125Z,22.98
2022-09-05T10:11:08.801Z,22.99
2022-09-05T10:12:11.246Z,23.00
2022-09-05T10:13:11.136Z,22.99
2022-09-05T10:14:22.448Z,22.98
2022-09-05T10:15:30.311Z,22.94
2022-09-05T10:16:11.175Z,22.94
2022-09-05T10:17:11.146Z,22.91
2022-09-05T10:18:11.158Z,22.96
2022-09-05T10:19:11.145Z,22.94
2022-09-05T10:20:11.885Z,22.88
2022-09-05T10:21:16.009Z,22.90
2022-09-05T10:23:11.174Z,22.75
2022-09-05T10:24:11.168Z,22.80
2022-09-05T10:25:19.077Z,22.85
2022-09-05T10:26:11.191Z,22.76
2022-09-05T10:27:11.238Z,22.80
2022-09-05T10:28:11.195Z,22.78
2022-09-05T10:29:30.195Z,22.73
2022-09-05T10:30:11.198Z,22.70
2022-09-05T10:32:14.972Z,22.63
2022-09-05T10:35:08.190Z,22.66
2022-09-05T10:35:11.196Z,22.62
2022-09-05T10:35:14.307Z,22.69
2022-09-05T10:35:21.180Z,22.59
2022-09-05T10:36:16.571Z,22.62
2022-09-05T10:37:11.223Z,22.59
2022-09-05T10:38:11.222Z,22.51
2022-09-05T10:39:13.619Z,22.51
2022-09-05T10:40:11.220Z,22.53
2022-09-05T10:41:20.884Z,22.45
2022-09-05T10:42:11.233Z,22.50
2022-09-05T10:43:11.237Z,22.44
2022-09-05T10:44:11.236Z,22.44
2022-09-05T10:45:11.275Z,22.45
2022-09-05T10:46:12.853Z,22.43
2022-09-05T10:47:11.301Z,22.50
2022-09-05T10:48:13.794Z,22.44
2022-09-05T10:49:11.279Z,22.41
2022-09-05T10:50:11.290Z,22.33
2022-09-05T10:51:11.279Z,22.36
2022-09-05T10:52:18.357Z,22.39
2022-09-05T10:53:11.288Z,22.33
2022-09-05T10:54:11.274Z,22.33
2022-09-05T10:55:14.832Z,22.26
2022-09-05T10:56:11.285Z,22.28
2022-09-05T10:57:11.322Z,22.33
2022-09-05T10:58:11.285Z,22.36
2022-09-05T11:01:27.627Z,22.25
2022-09-05T11:02:23.405Z,22.22
2022-09-05T11:02:26.703Z,22.28
2022-09-05T11:02:28.568Z,22.28
2022-09-05T11:03:11.342Z,22.30
2022-09-05T11:04:11.458Z,22.30
2022-09-05T11:05:11.457Z,22.20
2022-09-05T11:06:11.312Z,22.33
2022-09-05T11:07:11.312Z,22.30
2022-09-05T11:08:11.322Z,22.22
2022-09-05T11:09:16.077Z,22.23
2022-09-05T11:10:11.325Z,22.29
2022-09-05T11:11:11.327Z,22.33
2022-09-05T11:12:11.332Z,22.38
2022-09-05T11:13:11.338Z,22.33
2022-09-05T11:14:26.192Z,22.35
2022-09-05T11:15:11.358Z,22.33
2022-09-05T11:16:13.388Z,22.33
2022-09-05T11:17:11.349Z,22.35
2022-09-05T11:18:11.341Z,22.36
2022-09-05T11:19:11.359Z,22.45
2022-09-05T11:20:14.459Z,22.39
2022-09-05T11:21:11.357Z,22.43
2022-09-05T11:22:22.279Z,22.48
2022-09-05T11:23:11.364Z,22.45
2022-09-05T11:24:11.379Z,22.47
2022-09-05T11:25:11.372Z,22.44
2022-09-05T11:26:11.373Z,22.50
2022-09-05T11:27:25.304Z,22.44
2022-09-05T11:28:11.395Z,22.44
2022-09-05T11:29:11.397Z,22.50
2022-09-05T11:30:28.699Z,22.47
2022-09-05T11:31:11.446Z,22.47
2022-09-05T11:36:14.687Z,22.43
2022-09-05T11:39:45.821Z,22.50
2022-09-05T11:39:46.605Z,22.44
2022-09-05T11:39:53.051Z,22.44
2022-09-05T11:39:55.602Z,22.41
2022-09-05T11:40:03.913Z,22.41
2022-09-05T11:40:06.567Z,22.50
2022-09-05T11:40:09.883Z,22.45
2022-09-05T11:40:31.209Z,22.44
2022-09-05T11:41:13.395Z,22.47
2022-09-05T11:42:11.480Z,22.47
2022-09-05T11:43:11.431Z,22.44
2022-09-05T11:44:24.718Z,22.44
2022-09-05T11:45:11.442Z,22.45
2022-09-05T11:46:11.480Z,22.45
2022-09-05T11:47:27.051Z,22.47
2022-09-05T11:48:11.442Z,22.48
2022-09-05T11:49:11.448Z,22.50
2022-09-05T11:50:11.456Z,22.50
2022-09-05T11:51:11.488Z,22.51
2022-09-05T11:52:11.484Z,22.53
2022-09-05T11:53:11.462Z,22.48
2022-09-05T11:54:11.468Z,22.44
2022-09-05T11:55:21.429Z,22.44
2022-09-05T11:56:11.483Z,22.38
2022-09-05T11:57:33.786Z,22.48
2022-09-05T11:58:43.635Z,22.48
2022-09-05T11:59:11.502Z,22.45
2022-09-05T12:00:33.058Z,22.47
2022-09-05T12:01:42.934Z,22.57
2022-09-05T12:02:23.262Z,22.57
2022-09-05T12:03:11.520Z,22.57
2022-09-05T12:04:13.784Z,22.51
2022-09-05T12:05:48.818Z,22.59
2022-09-05T12:06:11.548Z,22.51
2022-09-05T12:07:26.329Z,22.55
2022-09-05T12:08:11.510Z,22.51
2022-09-05T12:09:11.521Z,22.57
2022-09-05T12:10:43.442Z,22.59
2022-09-05T12:11:11.530Z,22.59
2022-09-05T12:12:31.340Z,22.48
2022-09-05T12:13:11.530Z,22.57
2022-09-05T12:14:21.293Z,22.55
2022-09-05T12:15:11.841Z,22.55
2022-09-05T12:16:11.566Z,22.60
2022-09-05T12:17:16.803Z,22.53
2022-09-05T12:18:19.161Z,22.55
2022-09-05T12:19:19.367Z,22.55
2022-09-05T12:20:17.121Z,22.53
2022-09-05T12:21:17.469Z,22.51
2022-09-05T12:22:16.121Z,22.57
2022-09-05T12:23:19.645Z,22.55
2022-09-05T12:24:35.405Z,22.55
2022-09-05T12:25:25.410Z,22.51
2022-09-05T12:27:38.397Z,22.55
2022-09-05T12:27:41.466Z,22.55
2022-09-05T12:29:26.366Z,22.59
2022-09-05T12:29:29.134Z,22.57
2022-09-05T12:30:14.037Z,22.68
2022-09-05T12:32:17.561Z,22.62
2022-09-05T12:33:28.369Z,22.66
2022-09-05T12:36:01.834Z,22.76
2022-09-05T12:36:07.740Z,22.63
2022-09-05T12:36:13.386Z,22.75
2022-09-05T12:40:06.329Z,22.76
2022-09-05T12:40:46.190Z,22.70
2022-09-05T12:41:33.806Z,22.81
2022-09-05T12:41:36.422Z,22.81
2022-09-05T12:41:36.612Z,22.83
2022-09-05T12:41:44.086Z,22.80
2022-09-05T12:42:21.655Z,22.80
2022-09-05T12:44:36.590Z,22.75
2022-09-05T12:44:42.313Z,22.78
2022-09-05T12:45:11.907Z,22.80
2022-09-05T12:46:18.435Z,22.76
2022-09-05T12:47:18.597Z,22.75
2022-09-05T12:48:11.651Z,22.73
2022-09-05T12:49:11.651Z,22.81
2022-09-05T12:50:14.270Z,22.83
2022-09-05T12:51:11.657Z,22.81
2022-09-05T12:52:11.673Z,22.78
2022-09-05T12:53:11.659Z,22.75
2022-09-05T12:54:33.731Z,22.76
2022-09-05T12:55:11.673Z,22.68
2022-09-05T12:57:38.933Z,22.76